sensor_id;sensor_type;location;lat;lon;timestamp;P1;durP1;ratioP1;P2;durP2;ratioP2
20593;SDS011;10455;48.732;10.266;2023-06-14T00:04:45;1999.90;;;999.90;;
20593;SDS011;10455;48.732;10.266;2023-06-14T00:09:49;1999.90;;;999.90;;
20593;SDS011;10455;48.732;10.266;2023-06-14T00:14:51;1999.90;;;999.90;;
20593;SDS011;10455;48.732;10.266;2023-06-14T00:19:53;1999.90;;;999.90;;
20593;SDS011;10455;48.732;10.266;2023-06-14T00:24:58;1999.90;;;999.90;;
20593;SDS011;10455;48.732;10.266;2023-06-14T00:30:00;1999.90;;;999.90;;
20593;SDS011;10455;48.732;10.266;2023-06-14T00:35:02;1999.90;;;999.90;;
20593;SDS011;10455;48.732;10.266;2023-06-14T00:40:06;1999.90;;;999.90;;
20593;SDS011;10455;48.732;10.266;2023-06-14T00:45:09;1999.90;;;999.90;;
20593;SDS011;10455;48.732;10.266;2023-06-14T00:50:11;1999.90;;;999.90;;
20593;SDS011;10455;48.732;10.266;2023-06-14T00:55:15;1999.90;;;999.90;;
20593;SDS011;10455;48.732;10.266;2023-06-14T01:00:17;1999.90;;;999.90;;
20593;SDS011;10455;48.732;10.266;2023-06-14T01:05:19;1999.90;;;999.90;;
20593;SDS011;10455;48.732;10.266;2023-06-14T01:10:28;1999.90;;;999.90;;
20593;SDS011;10455;48.732;10.266;2023-06-14T01:15:37;1999.90;;;999.90;;
20593;SDS011;10455;48.732;10.266;2023-06-14T01:20:40;1999.90;;;999.90;;
20593;SDS011;10455;48.732;10.266;2023-06-14T01:25:43;1999.90;;;999.90;;
20593;SDS011;10455;48.732;10.266;2023-06-14T01:30:47;1999.90;;;999.90;;
20593;SDS011;10455;48.732;10.266;2023-06-14T01:35:53;1999.90;;;999.90;;
20593;SDS011;10455;48.732;10.266;2023-06-14T01:40:58;1999.90;;;999.90;;
20593;SDS011;10455;48.732;10.266;2023-06-14T01:46:01;1999.90;;;999.90;;
20593;SDS011;10455;48.732;10.266;2023-06-14T01:51:05;1999.90;;;999.90;;
20593;SDS011;10455;48.732;10.266;2023-06-14T01:56:08;1999.90;;;999.90;;
20593;SDS011;10455;48.732;10.266;2023-06-14T02:01:10;1999.90;;;999.90;;
20593;SDS011;10455;48.732;10.266;2023-06-14T02:06:12;1999.90;;;999.90;;
20593;SDS011;10455;48.732;10.266;2023-06-14T02:11:17;1999.90;;;999.90;;
20593;SDS011;10455;48.732;10.266;2023-06-14T02:16:19;1999.90;;;999.90;;
20593;SDS011;10455;48.732;10.266;2023-06-14T02:21:21;1999.90;;;999.90;;
20593;SDS011;10455;48.732;10.266;2023-06-14T02:26:24;1999.90;;;999.90;;
20593;SDS011;10455;48.732;10.266;2023-06-14T02:31:29;1999.90;;;999.90;;
20593;SDS011;10455;48.732;10.266;2023-06-14T02:36:30;1999.90;;;999.90;;
20593;SDS011;10455;48.732;10.266;2023-06-14T02:41:34;1999.90;;;999.90;;
20593;SDS011;10455;48.732;10.266;2023-06-14T02:46:36;1999.90;;;999.90;;
20593;SDS011;10455;48.732;10.266;2023-06-14T02:51:37;1999.90;;;999.90;;
20593;SDS011;10455;48.732;10.266;2023-06-14T02:56:41;1999.90;;;999.90;;
20593;SDS011;10455;48.732;10.266;2023-06-14T03:01:43;1999.90;;;999.90;;
20593;SDS011;10455;48.732;10.266;2023-06-14T03:06:45;1999.90;;;999.90;;
20593;SDS011;10455;48.732;10.266;2023-06-14T03:11:51;1999.90;;;999.90;;
20593;SDS011;10455;48.732;10.266;2023-06-14T03:16:53;1999.90;;;999.90;;
20593;SDS011;10455;48.732;10.266;2023-06-14T03:21:56;1999.90;;;999.90;;
20593;SDS011;10455;48.732;10.266;2023-06-14T03:27:00;1999.90;;;999.90;;
20593;SDS011;10455;48.732;10.266;2023-06-14T03:32:02;1999.90;;;999.90;;
20593;SDS011;10455;48.732;10.266;2023-06-14T03:37:05;1999.90;;;999.90;;
20593;SDS011;10455;48.732;10.266;2023-06-14T03:42:08;1999.90;;;999.90;;
20593;SDS011;10455;48.732;10.266;2023-06-14T03:47:10;1999.90;;;999.90;;
20593;SDS011;10455;48.732;10.266;2023-06-14T03:52:12;1999.90;;;999.90;;
20593;SDS011;10455;48.732;10.266;2023-06-14T03:57:17;1999.90;;;999.90;;
20593;SDS011;10455;48.732;10.266;2023-06-14T04:02:20;1999.90;;;999.90;;
20593;SDS011;10455;48.732;10.266;2023-06-14T04:07:22;1999.90;;;999.90;;
20593;SDS011;10455;48.732;10.266;2023-06-14T04:12:26;1999.90;;;999.90;;
20593;SDS011;10455;48.732;10.266;2023-06-14T04:17:28;1999.90;;;999.90;;
20593;SDS011;10455;48.732;10.266;2023-06-14T04:22:30;859.97;;;803.13;;
20593;SDS011;10455;48.732;10.266;2023-06-14T04:27:33;297.77;;;282.47;;
20593;SDS011;10455;48.732;10.266;2023-06-14T04:32:36;115.10;;;109.77;;
20593;SDS011;10455;48.732;10.266;2023-06-14T04:37:39;120.97;;;115.63;;
20593;SDS011;10455;48.732;10.266;2023-06-14T04:42:42;144.98;;;138.73;;
20593;SDS011;10455;48.732;10.266;2023-06-14T04:47:46;265.33;;;253.70;;
20593;SDS011;10455;48.732;10.266;2023-06-14T04:52:48;351.20;;;335.35;;
20593;SDS011;10455;48.732;10.266;2023-06-14T04:57:52;443.90;;;423.20;;
20593;SDS011;10455;48.732;10.266;2023-06-14T05:02:54;468.00;;;446.15;;
20593;SDS011;10455;48.732;10.266;2023-06-14T05:07:57;398.00;;;380.60;;
20593;SDS011;10455;48.732;10.266;2023-06-14T05:13:00;327.15;;;313.35;;
20593;SDS011;10455;48.732;10.266;2023-06-14T05:18:02;313.88;;;300.05;;
20593;SDS011;10455;48.732;10.266;2023-06-14T05:23:04;268.63;;;256.88;;
20593;SDS011;10455;48.732;10.266;2023-06-14T05:28:07;302.48;;;289.52;;
20593;SDS011;10455;48.732;10.266;2023-06-14T05:33:09;345.95;;;330.50;;
20593;SDS011;10455;48.732;10.266;2023-06-14T05:38:11;296.38;;;283.88;;
20593;SDS011;10455;48.732;10.266;2023-06-14T05:43:14;432.52;;;411.05;;
20593;SDS011;10455;48.732;10.266;2023-06-14T05:48:16;289.30;;;276.73;;
20593;SDS011;10455;48.732;10.266;2023-06-14T05:53:18;361.45;;;343.90;;
20593;SDS011;10455;48.732;10.266;2023-06-14T05:58:21;365.73;;;347.67;;
20593;SDS011;10455;48.732;10.266;2023-06-14T06:03:23;324.17;;;309.90;;
20593;SDS011;10455;48.732;10.266;2023-06-14T06:08:25;389.52;;;368.95;;
20593;SDS011;10455;48.732;10.266;2023-06-14T06:13:28;344.65;;;327.13;;
20593;SDS011;10455;48.732;10.266;2023-06-14T06:18:30;381.85;;;362.17;;
20593;SDS011;10455;48.732;10.266;2023-06-14T06:23:32;314.02;;;299.17;;
20593;SDS011;10455;48.732;10.266;2023-06-14T06:28:37;384.77;;;362.23;;
20593;SDS011;10455;48.732;10.266;2023-06-14T06:33:38;371.65;;;349.77;;
20593;SDS011;10455;48.732;10.266;2023-06-14T06:38:40;505.83;;;468.83;;
20593;SDS011;10455;48.732;10.266;2023-06-14T06:43:45;400.58;;;372.60;;
20593;SDS011;10455;48.732;10.266;2023-06-14T06:48:47;321.27;;;306.92;;
20593;SDS011;10455;48.732;10.266;2023-06-14T06:53:51;344.48;;;327.17;;
20593;SDS011;10455;48.732;10.266;2023-06-14T06:58:56;329.35;;;314.25;;
20593;SDS011;10455;48.732;10.266;2023-06-14T07:03:58;327.27;;;310.55;;
20593;SDS011;10455;48.732;10.266;2023-06-14T07:08:59;366.13;;;345.40;;
20593;SDS011;10455;48.732;10.266;2023-06-14T07:14:03;259.48;;;247.10;;
20593;SDS011;10455;48.732;10.266;2023-06-14T07:19:05;495.73;;;452.33;;
20593;SDS011;10455;48.732;10.266;2023-06-14T07:24:06;417.42;;;392.15;;
20593;SDS011;10455;48.732;10.266;2023-06-14T07:29:10;264.00;;;252.73;;
20593;SDS011;10455;48.732;10.266;2023-06-14T07:34:14;340.10;;;321.83;;
20593;SDS011;10455;48.732;10.266;2023-06-14T07:39:16;485.58;;;457.45;;
20593;SDS011;10455;48.732;10.266;2023-06-14T07:44:20;377.98;;;359.38;;
20593;SDS011;10455;48.732;10.266;2023-06-14T07:49:22;395.70;;;373.70;;
20593;SDS011;10455;48.732;10.266;2023-06-14T07:54:24;469.50;;;437.63;;
20593;SDS011;10455;48.732;10.266;2023-06-14T07:59:29;491.23;;;461.95;;
20593;SDS011;10455;48.732;10.266;2023-06-14T08:04:31;395.83;;;377.20;;
20593;SDS011;10455;48.732;10.266;2023-06-14T08:09:34;369.85;;;351.13;;
20593;SDS011;10455;48.732;10.266;2023-06-14T08:14:40;451.50;;;420.45;;
20593;SDS011;10455;48.732;10.266;2023-06-14T08:19:43;428.63;;;405.30;;
20593;SDS011;10455;48.732;10.266;2023-06-14T08:24:45;468.33;;;436.55;;
20593;SDS011;10455;48.732;10.266;2023-06-14T08:29:49;348.88;;;332.65;;
20593;SDS011;10455;48.732;10.266;2023-06-14T08:34:51;588.67;;;547.50;;
20593;SDS011;10455;48.732;10.266;2023-06-14T08:39:53;528.05;;;487.00;;
20593;SDS011;10455;48.732;10.266;2023-06-14T08:44:57;525.65;;;489.23;;
20593;SDS011;10455;48.732;10.266;2023-06-14T08:49:59;475.58;;;447.02;;
20593;SDS011;10455;48.732;10.266;2023-06-14T08:55:01;304.98;;;290.83;;
20593;SDS011;10455;48.732;10.266;2023-06-14T09:00:06;498.23;;;468.60;;
20593;SDS011;10455;48.732;10.266;2023-06-14T09:05:12;407.30;;;387.15;;
20593;SDS011;10455;48.732;10.266;2023-06-14T09:10:14;473.52;;;448.65;;
20593;SDS011;10455;48.732;10.266;2023-06-14T09:15:18;513.47;;;479.38;;
20593;SDS011;10455;48.732;10.266;2023-06-14T09:20:20;370.35;;;354.15;;
20593;SDS011;10455;48.732;10.266;2023-06-14T09:25:23;443.67;;;416.80;;
20593;SDS011;10455;48.732;10.266;2023-06-14T09:30:26;504.30;;;473.88;;
20593;SDS011;10455;48.732;10.266;2023-06-14T09:35:30;647.10;;;581.42;;
20593;SDS011;10455;48.732;10.266;2023-06-14T09:40:33;365.40;;;346.38;;
20593;SDS011;10455;48.732;10.266;2023-06-14T09:45:38;321.63;;;307.25;;
20593;SDS011;10455;48.732;10.266;2023-06-14T09:50:41;332.27;;;317.55;;
20593;SDS011;10455;48.732;10.266;2023-06-14T09:55:43;441.35;;;417.20;;
20593;SDS011;10455;48.732;10.266;2023-06-14T10:00:47;330.15;;;311.67;;
20593;SDS011;10455;48.732;10.266;2023-06-14T10:05:53;472.15;;;438.70;;
20593;SDS011;10455;48.732;10.266;2023-06-14T10:10:57;580.67;;;530.33;;
20593;SDS011;10455;48.732;10.266;2023-06-14T10:16:04;524.78;;;482.17;;
20593;SDS011;10455;48.732;10.266;2023-06-14T10:21:13;412.38;;;380.40;;
20593;SDS011;10455;48.732;10.266;2023-06-14T10:26:20;541.75;;;488.83;;
20593;SDS011;10455;48.732;10.266;2023-06-14T10:31:26;128.43;;;122.55;;
20593;SDS011;10455;48.732;10.266;2023-06-14T10:36:41;151.32;;;143.73;;
20593;SDS011;10455;48.732;10.266;2023-06-14T10:41:50;88.43;;;84.75;;
20593;SDS011;10455;48.732;10.266;2023-06-14T10:46:55;284.67;;;268.83;;
20593;SDS011;10455;48.732;10.266;2023-06-14T10:51:59;290.35;;;275.15;;
20593;SDS011;10455;48.732;10.266;2023-06-14T10:57:01;329.77;;;312.10;;
20593;SDS011;10455;48.732;10.266;2023-06-14T11:02:12;231.38;;;221.57;;
20593;SDS011;10455;48.732;10.266;2023-06-14T11:07:39;214.73;;;203.82;;
20593;SDS011;10455;48.732;10.266;2023-06-14T11:12:49;377.65;;;356.80;;
20593;SDS011;10455;48.732;10.266;2023-06-14T11:17:57;336.10;;;316.95;;
20593;SDS011;10455;48.732;10.266;2023-06-14T11:23:01;138.45;;;132.80;;
20593;SDS011;10455;48.732;10.266;2023-06-14T11:28:03;463.55;;;436.50;;
20593;SDS011;10455;48.732;10.266;2023-06-14T11:33:09;566.90;;;518.38;;
20593;SDS011;10455;48.732;10.266;2023-06-14T11:38:11;693.08;;;626.65;;
20593;SDS011;10455;48.732;10.266;2023-06-14T11:43:13;637.53;;;584.58;;
20593;SDS011;10455;48.732;10.266;2023-06-14T11:48:16;162.82;;;155.82;;
20593;SDS011;10455;48.732;10.266;2023-06-14T11:53:19;186.88;;;178.00;;
20593;SDS011;10455;48.732;10.266;2023-06-14T11:58:21;396.27;;;373.67;;
20593;SDS011;10455;48.732;10.266;2023-06-14T12:03:24;477.95;;;446.92;;
20593;SDS011;10455;48.732;10.266;2023-06-14T12:08:31;436.08;;;400.40;;
20593;SDS011;10455;48.732;10.266;2023-06-14T12:13:38;291.60;;;275.30;;
20593;SDS011;10455;48.732;10.266;2023-06-14T12:18:42;365.95;;;344.60;;
20593;SDS011;10455;48.732;10.266;2023-06-14T12:23:45;283.17;;;266.10;;
20593;SDS011;10455;48.732;10.266;2023-06-14T12:28:48;432.20;;;400.60;;
20593;SDS011;10455;48.732;10.266;2023-06-14T12:33:51;630.78;;;576.47;;
20593;SDS011;10455;48.732;10.266;2023-06-14T12:38:53;362.10;;;336.77;;
20593;SDS011;10455;48.732;10.266;2023-06-14T12:43:55;449.33;;;414.83;;
20593;SDS011;10455;48.732;10.266;2023-06-14T12:49:01;264.05;;;247.52;;
20593;SDS011;10455;48.732;10.266;2023-06-14T12:54:03;270.25;;;255.65;;
20593;SDS011;10455;48.732;10.266;2023-06-14T12:59:05;267.60;;;251.05;;
20593;SDS011;10455;48.732;10.266;2023-06-14T13:04:09;450.83;;;411.40;;
20593;SDS011;10455;48.732;10.266;2023-06-14T13:09:11;239.05;;;226.40;;
20593;SDS011;10455;48.732;10.266;2023-06-14T13:14:13;130.57;;;124.57;;
20593;SDS011;10455;48.732;10.266;2023-06-14T13:19:16;293.10;;;274.95;;
20593;SDS011;10455;48.732;10.266;2023-06-14T13:24:18;144.05;;;137.52;;
20593;SDS011;10455;48.732;10.266;2023-06-14T13:29:20;160.02;;;152.55;;
20593;SDS011;10455;48.732;10.266;2023-06-14T13:34:23;318.08;;;297.55;;
20593;SDS011;10455;48.732;10.266;2023-06-14T13:39:25;183.88;;;176.38;;
20593;SDS011;10455;48.732;10.266;2023-06-14T13:44:27;307.70;;;291.02;;
20593;SDS011;10455;48.732;10.266;2023-06-14T13:49:30;535.72;;;486.88;;
20593;SDS011;10455;48.732;10.266;2023-06-14T13:54:35;884.55;;;691.28;;
20593;SDS011;10455;48.732;10.266;2023-06-14T13:59:37;370.73;;;346.42;;
20593;SDS011;10455;48.732;10.266;2023-06-14T14:04:40;520.10;;;473.02;;
20593;SDS011;10455;48.732;10.266;2023-06-14T14:09:42;580.38;;;524.80;;
20593;SDS011;10455;48.732;10.266;2023-06-14T14:14:44;332.27;;;311.83;;
20593;SDS011;10455;48.732;10.266;2023-06-14T14:19:47;354.95;;;334.35;;
20593;SDS011;10455;48.732;10.266;2023-06-14T14:24:49;441.33;;;406.13;;
20593;SDS011;10455;48.732;10.266;2023-06-14T14:29:51;320.55;;;300.05;;
20593;SDS011;10455;48.732;10.266;2023-06-14T14:34:54;160.07;;;152.20;;
20593;SDS011;10455;48.732;10.266;2023-06-14T14:39:56;260.08;;;247.02;;
20593;SDS011;10455;48.732;10.266;2023-06-14T14:44:58;418.48;;;391.10;;
20593;SDS011;10455;48.732;10.266;2023-06-14T14:50:01;315.73;;;301.23;;
20593;SDS011;10455;48.732;10.266;2023-06-14T14:55:04;264.13;;;253.30;;
20593;SDS011;10455;48.732;10.266;2023-06-14T15:00:07;457.83;;;428.15;;
20593;SDS011;10455;48.732;10.266;2023-06-14T15:05:10;489.35;;;458.25;;
20593;SDS011;10455;48.732;10.266;2023-06-14T15:10:12;683.38;;;608.63;;
20593;SDS011;10455;48.732;10.266;2023-06-14T15:15:15;429.30;;;397.80;;
20593;SDS011;10455;48.732;10.266;2023-06-14T15:20:18;465.05;;;415.02;;
20593;SDS011;10455;48.732;10.266;2023-06-14T15:25:20;347.42;;;323.20;;
20593;SDS011;10455;48.732;10.266;2023-06-14T15:30:22;384.65;;;359.00;;
20593;SDS011;10455;48.732;10.266;2023-06-14T15:35:25;549.53;;;495.23;;
20593;SDS011;10455;48.732;10.266;2023-06-14T15:40:27;639.58;;;569.85;;
20593;SDS011;10455;48.732;10.266;2023-06-14T15:45:29;450.58;;;412.13;;
20593;SDS011;10455;48.732;10.266;2023-06-14T15:50:32;593.80;;;543.83;;
20593;SDS011;10455;48.732;10.266;2023-06-14T15:55:34;499.35;;;463.00;;
20593;SDS011;10455;48.732;10.266;2023-06-14T16:00:36;363.02;;;337.60;;
20593;SDS011;10455;48.732;10.266;2023-06-14T16:05:39;395.88;;;366.02;;
20593;SDS011;10455;48.732;10.266;2023-06-14T16:10:41;228.63;;;217.73;;
20593;SDS011;10455;48.732;10.266;2023-06-14T16:15:43;276.85;;;260.15;;
20593;SDS011;10455;48.732;10.266;2023-06-14T16:20:46;457.85;;;412.85;;
20593;SDS011;10455;48.732;10.266;2023-06-14T16:25:48;343.02;;;321.42;;
20593;SDS011;10455;48.732;10.266;2023-06-14T16:30:50;523.38;;;475.05;;
20593;SDS011;10455;48.732;10.266;2023-06-14T16:35:54;312.85;;;292.42;;
20593;SDS011;10455;48.732;10.266;2023-06-14T16:40:55;408.02;;;379.65;;
20593;SDS011;10455;48.732;10.266;2023-06-14T16:45:59;420.08;;;393.73;;
20593;SDS011;10455;48.732;10.266;2023-06-14T16:51:02;479.25;;;447.63;;
20593;SDS011;10455;48.732;10.266;2023-06-14T16:56:04;1125.30;;;768.88;;
20593;SDS011;10455;48.732;10.266;2023-06-14T17:01:06;392.73;;;369.42;;
20593;SDS011;10455;48.732;10.266;2023-06-14T17:06:09;419.02;;;381.50;;
20593;SDS011;10455;48.732;10.266;2023-06-14T17:11:11;474.85;;;438.13;;
20593;SDS011;10455;48.732;10.266;2023-06-14T17:16:13;482.70;;;440.65;;
20593;SDS011;10455;48.732;10.266;2023-06-14T17:21:16;329.95;;;312.00;;
20593;SDS011;10455;48.732;10.266;2023-06-14T17:26:18;473.88;;;438.52;;
20593;SDS011;10455;48.732;10.266;2023-06-14T17:31:20;320.25;;;301.13;;
20593;SDS011;10455;48.732;10.266;2023-06-14T17:36:23;453.13;;;417.58;;
20593;SDS011;10455;48.732;10.266;2023-06-14T17:41:25;284.60;;;269.08;;
20593;SDS011;10455;48.732;10.266;2023-06-14T17:46:30;373.88;;;350.30;;
20593;SDS011;10455;48.732;10.266;2023-06-14T17:51:33;258.20;;;244.25;;
20593;SDS011;10455;48.732;10.266;2023-06-14T17:56:35;408.40;;;381.02;;
20593;SDS011;10455;48.732;10.266;2023-06-14T18:01:36;899.05;;;665.55;;
20593;SDS011;10455;48.732;10.266;2023-06-14T18:06:40;377.95;;;348.52;;
20593;SDS011;10455;48.732;10.266;2023-06-14T18:11:42;394.10;;;366.70;;
20593;SDS011;10455;48.732;10.266;2023-06-14T18:16:46;351.33;;;326.92;;
20593;SDS011;10455;48.732;10.266;2023-06-14T18:21:50;508.52;;;468.10;;
20593;SDS011;10455;48.732;10.266;2023-06-14T18:26:52;461.90;;;418.08;;
20593;SDS011;10455;48.732;10.266;2023-06-14T18:31:54;226.38;;;214.18;;
20593;SDS011;10455;48.732;10.266;2023-06-14T18:36:58;203.32;;;191.77;;
20593;SDS011;10455;48.732;10.266;2023-06-14T18:42:00;178.35;;;168.52;;
20593;SDS011;10455;48.732;10.266;2023-06-14T18:47:02;348.25;;;328.73;;
20593;SDS011;10455;48.732;10.266;2023-06-14T18:52:06;322.33;;;306.75;;
20593;SDS011;10455;48.732;10.266;2023-06-14T18:57:09;384.05;;;365.27;;
20593;SDS011;10455;48.732;10.266;2023-06-14T19:02:11;262.92;;;251.13;;
20593;SDS011;10455;48.732;10.266;2023-06-14T19:07:14;305.10;;;290.77;;
20593;SDS011;10455;48.732;10.266;2023-06-14T19:12:16;356.00;;;339.27;;
20593;SDS011;10455;48.732;10.266;2023-06-14T19:17:18;256.23;;;244.52;;
20593;SDS011;10455;48.732;10.266;2023-06-14T19:22:22;362.67;;;345.42;;
20593;SDS011;10455;48.732;10.266;2023-06-14T19:27:24;279.98;;;266.35;;
20593;SDS011;10455;48.732;10.266;2023-06-14T19:32:26;295.65;;;282.08;;
20593;SDS011;10455;48.732;10.266;2023-06-14T19:37:29;290.15;;;276.77;;
20593;SDS011;10455;48.732;10.266;2023-06-14T19:42:31;277.55;;;264.75;;
20593;SDS011;10455;48.732;10.266;2023-06-14T19:47:33;276.52;;;263.38;;
20593;SDS011;10455;48.732;10.266;2023-06-14T19:52:37;323.80;;;306.77;;
20593;SDS011;10455;48.732;10.266;2023-06-14T19:57:39;277.00;;;264.67;;
20593;SDS011;10455;48.732;10.266;2023-06-14T20:02:41;252.32;;;241.23;;
20593;SDS011;10455;48.732;10.266;2023-06-14T20:07:44;237.65;;;226.68;;
20593;SDS011;10455;48.732;10.266;2023-06-14T20:12:46;182.65;;;174.57;;
20593;SDS011;10455;48.732;10.266;2023-06-14T20:17:48;224.30;;;214.05;;
20593;SDS011;10455;48.732;10.266;2023-06-14T20:22:51;178.52;;;170.18;;
20593;SDS011;10455;48.732;10.266;2023-06-14T20:27:53;219.27;;;209.38;;
20593;SDS011;10455;48.732;10.266;2023-06-14T20:32:55;220.45;;;210.80;;
20593;SDS011;10455;48.732;10.266;2023-06-14T20:37:58;241.35;;;230.50;;
20593;SDS011;10455;48.732;10.266;2023-06-14T20:43:00;172.80;;;164.90;;
20593;SDS011;10455;48.732;10.266;2023-06-14T20:48:03;254.55;;;243.13;;
20593;SDS011;10455;48.732;10.266;2023-06-14T20:53:07;153.85;;;147.18;;
20593;SDS011;10455;48.732;10.266;2023-06-14T20:58:09;258.73;;;247.68;;
20593;SDS011;10455;48.732;10.266;2023-06-14T21:03:11;184.80;;;176.55;;
20593;SDS011;10455;48.732;10.266;2023-06-14T21:08:14;199.32;;;190.63;;
20593;SDS011;10455;48.732;10.266;2023-06-14T21:13:16;391.63;;;372.70;;
20593;SDS011;10455;48.732;10.266;2023-06-14T21:18:18;635.35;;;599.28;;
20593;SDS011;10455;48.732;10.266;2023-06-14T21:23:21;1999.90;;;999.90;;
20593;SDS011;10455;48.732;10.266;2023-06-14T21:28:23;1999.90;;;999.90;;
20593;SDS011;10455;48.732;10.266;2023-06-14T21:33:25;1999.90;;;999.90;;
20593;SDS011;10455;48.732;10.266;2023-06-14T21:38:28;1999.90;;;999.90;;
20593;SDS011;10455;48.732;10.266;2023-06-14T21:43:30;1999.90;;;999.90;;
20593;SDS011;10455;48.732;10.266;2023-06-14T21:48:32;1999.90;;;999.90;;
20593;SDS011;10455;48.732;10.266;2023-06-14T21:53:35;1999.90;;;999.90;;
20593;SDS011;10455;48.732;10.266;2023-06-14T21:58:37;1999.90;;;999.90;;
20593;SDS011;10455;48.732;10.266;2023-06-14T22:03:39;1999.90;;;999.90;;
20593;SDS011;10455;48.732;10.266;2023-06-14T22:08:42;1999.90;;;999.90;;
20593;SDS011;10455;48.732;10.266;2023-06-14T22:13:44;1999.90;;;999.90;;
20593;SDS011;10455;48.732;10.266;2023-06-14T22:18:48;1999.90;;;999.90;;
20593;SDS011;10455;48.732;10.266;2023-06-14T22:23:53;1999.90;;;999.90;;
20593;SDS011;10455;48.732;10.266;2023-06-14T22:28:56;1999.90;;;999.90;;
20593;SDS011;10455;48.732;10.266;2023-06-14T22:34:05;1999.90;;;999.90;;
20593;SDS011;10455;48.732;10.266;2023-06-14T22:39:09;1999.90;;;999.90;;
20593;SDS011;10455;48.732;10.266;2023-06-14T22:44:11;1999.90;;;999.90;;
20593;SDS011;10455;48.732;10.266;2023-06-14T22:49:16;1999.90;;;999.90;;
20593;SDS011;10455;48.732;10.266;2023-06-14T22:54:20;1999.90;;;999.90;;
20593;SDS011;10455;48.732;10.266;2023-06-14T22:59:21;1999.90;;;999.90;;
20593;SDS011;10455;48.732;10.266;2023-06-14T23:04:24;1999.90;;;999.90;;
20593;SDS011;10455;48.732;10.266;2023-06-14T23:09:27;1999.90;;;999.90;;
20593;SDS011;10455;48.732;10.266;2023-06-14T23:14:29;1999.90;;;999.90;;
20593;SDS011;10455;48.732;10.266;2023-06-14T23:19:31;1999.90;;;999.90;;
20593;SDS011;10455;48.732;10.266;2023-06-14T23:24:35;1999.90;;;999.90;;
20593;SDS011;10455;48.732;10.266;2023-06-14T23:29:37;1999.90;;;999.90;;
20593;SDS011;10455;48.732;10.266;2023-06-14T23:34:42;1999.90;;;999.90;;
20593;SDS011;10455;48.732;10.266;2023-06-14T23:39:45;1999.90;;;999.90;;
20593;SDS011;10455;48.732;10.266;2023-06-14T23:44:50;1999.90;;;999.90;;
20593;SDS011;10455;48.732;10.266;2023-06-14T23:49:52;1999.90;;;999.90;;
20593;SDS011;10455;48.732;10.266;2023-06-14T23:54:55;1999.90;;;999.90;;
20593;SDS011;10455;48.732;10.266;2023-06-14T23:59:57;1999.90;;;999.90;;
